Clarkston, Washington
Current Conditions -  °F | °C
As of 3:56 AM on Monday 24 Nov 2014 (Local Time) from KLWS Reporting Station
Clear Clear  
Wind Chill: 34°   Ceiling: Unl
Heat Index: 39°   Visibility: 10mi
Dew Point: 29°   Wind: 7mph
Humidity: 67%   Direction: 160°SSE
Pressure: 30.31"   Gusts: NA
Location:  46.41°N, 117.04°W
Report Text: KLWS 241156Z AUTO 16006KT 10SM CLR 04/M02 A3031 RMK AO2 SLP273 60000 70004 T00391017 10078 20028 51018
Loading
Personal Weather Stations






























Interactive Weather Map New forecast layout! Learn more

10-Day Weather Forecast

Advertisements
Track Severe Weather on mobile